createdAt,value
2019-04-20T00:01:26.153Z,48.20
2019-04-20T00:03:53.547Z,48.50
2019-04-20T00:06:25.080Z,48.50
2019-04-20T00:08:59.850Z,48.50
2019-04-20T00:11:41.409Z,48.60
2019-04-20T00:14:07.120Z,48.60
2019-04-20T00:16:33.807Z,48.70
2019-04-20T00:19:05.922Z,48.90
2019-04-20T00:21:49.593Z,49.00
2019-04-20T00:24:27.623Z,49.00
2019-04-20T00:27:18.189Z,49.00
2019-04-20T00:29:47.858Z,49.30
2019-04-20T00:32:12.492Z,49.40
2019-04-20T00:34:37.224Z,49.70
2019-04-20T00:37:05.841Z,49.80
2019-04-20T00:39:38.255Z,50.00
2019-04-20T00:42:12.884Z,50.00
2019-04-20T00:44:45.510Z,50.00
2019-04-20T00:47:25.351Z,50.10
2019-04-20T00:49:57.801Z,50.20
2019-04-20T00:52:29.912Z,50.60
2019-04-20T00:54:51.477Z,50.70
2019-04-20T00:57:34.033Z,51.00
2019-04-20T01:00:11.067Z,51.30
2019-04-20T01:02:39.589Z,51.40
2019-04-20T01:05:21.408Z,51.30
2019-04-20T01:07:53.524Z,51.30
2019-04-20T01:10:21.518Z,51.50
2019-04-20T01:13:02.518Z,51.90
2019-04-20T01:15:36.362Z,52.10
2019-04-20T01:17:57.010Z,52.20
2019-04-20T01:20:27.941Z,52.10
2019-04-20T01:23:04.566Z,52.20
2019-04-20T01:25:37.147Z,52.20
2019-04-20T01:28:17.719Z,52.30
2019-04-20T01:30:43.144Z,52.30
2019-04-20T01:33:22.864Z,52.50
2019-04-20T01:35:56.916Z,52.70
2019-04-20T01:38:30.736Z,52.80
2019-04-20T01:40:46.422Z,53.00
2019-04-20T01:43:18.342Z,53.20
2019-04-20T01:45:52.563Z,53.50
2019-04-20T01:48:27.464Z,54.00
2019-04-20T01:51:02.148Z,54.10
2019-04-20T01:53:52.421Z,54.10
2019-04-20T01:56:18.123Z,54.10
2019-04-20T01:59:18.735Z,54.10
2019-04-20T02:02:05.241Z,53.90
2019-04-20T02:04:43.551Z,53.90
2019-04-20T02:07:11.989Z,54.00
2019-04-20T02:09:49.758Z,54.30
2019-04-20T02:12:21.877Z,54.30
2019-04-20T02:14:52.448Z,54.30
2019-04-20T02:17:27.903Z,54.30
2019-04-20T02:20:10.429Z,54.40
2019-04-20T02:22:42.190Z,54.40
2019-04-20T02:24:57.159Z,54.60
2019-04-20T02:27:36.887Z,54.80
2019-04-20T02:30:30.703Z,54.70
2019-04-20T02:33:18.401Z,55.10
2019-04-20T02:36:11.115Z,55.40
2019-04-20T02:41:44.701Z,55.50
2019-04-20T02:44:14.684Z,55.70
2019-04-20T02:46:49.537Z,55.90
2019-04-20T02:49:26.352Z,55.90
2019-04-20T02:51:47.609Z,56.00
2019-04-20T02:54:26.488Z,55.90
2019-04-20T02:59:47.536Z,56.30
2019-04-20T03:01:45.434Z,57.10
2019-04-20T03:04:01.383Z,56.80
2019-04-20T03:06:39.793Z,57.10
2019-04-20T03:09:36.786Z,57.30
2019-04-20T03:14:21.776Z,57.20
2019-04-20T03:17:01.451Z,57.40
2019-04-20T03:19:28.617Z,57.50
2019-04-20T03:22:09.257Z,58.10
2019-04-20T03:24:45.436Z,57.40
2019-04-20T03:27:25.465Z,57.30
2019-04-20T03:30:26.084Z,58.00
2019-04-20T03:33:06.945Z,58.60
2019-04-20T03:35:22.595Z,58.90
2019-04-20T03:37:53.492Z,59.00
2019-04-20T03:40:19.129Z,59.20
2019-04-20T03:42:34.949Z,59.40
2019-04-20T03:45:12.276Z,59.50
2019-04-20T03:47:52.811Z,59.70
2019-04-20T03:50:39.383Z,59.80
2019-04-20T03:53:19.193Z,60.00
2019-04-20T03:55:56.724Z,60.20
2019-04-20T03:58:46.003Z,62.40
2019-04-20T04:01:36.026Z,63.30
2019-04-20T04:04:21.225Z,61.30
2019-04-20T04:06:39.062Z,60.50
2019-04-20T04:09:19.236Z,60.80
2019-04-20T04:11:51.326Z,60.00
2019-04-20T04:14:07.880Z,60.00
2019-04-20T04:16:45.758Z,60.00
2019-04-20T04:19:20.761Z,58.90
2019-04-20T04:21:59.206Z,59.10
2019-04-20T04:24:26.074Z,60.20
2019-04-20T04:27:00.478Z,60.60
2019-04-20T04:29:43.015Z,59.90
2019-04-20T04:32:22.254Z,59.80
2019-04-20T04:34:45.900Z,59.70
2019-04-20T04:37:17.945Z,59.70
2019-04-20T04:39:48.548Z,60.00
2019-04-20T04:42:22.281Z,59.50
2019-04-20T04:44:43.524Z,59.80
2019-04-20T04:47:09.894Z,59.60
2019-04-20T04:49:42.664Z,59.30
2019-04-20T04:52:16.029Z,59.00
2019-04-20T04:54:53.307Z,59.10
2019-04-20T04:57:16.230Z,59.10
2019-04-20T04:59:47.021Z,58.70
2019-04-20T05:02:17.922Z,58.40
2019-04-20T05:05:25.199Z,58.60
2019-04-20T05:07:47.775Z,59.00
2019-04-20T05:10:05.662Z,58.70
2019-04-20T05:12:37.685Z,58.20
2019-04-20T05:15:21.211Z,58.10
2019-04-20T05:18:01.778Z,58.20
2019-04-20T05:20:35.337Z,58.70
2019-04-20T05:23:26.970Z,58.40
2019-04-20T05:26:28.486Z,58.30
2019-04-20T05:28:48.615Z,57.80
2019-04-20T05:31:12.230Z,58.00
2019-04-20T05:34:10.859Z,58.00
2019-04-20T05:36:37.231Z,58.40
2019-04-20T05:39:14.457Z,57.90
2019-04-20T05:41:38.392Z,57.80
2019-04-20T05:44:16.804Z,57.80
2019-04-20T05:46:58.538Z,57.30
2019-04-20T05:49:28.427Z,57.30
2019-04-20T05:52:10.706Z,57.30
2019-04-20T05:54:42.984Z,57.40
2019-04-20T05:57:17.157Z,57.30
2019-04-20T05:59:45.322Z,56.70
2019-04-20T06:02:16.911Z,56.60
2019-04-20T06:07:21.458Z,56.40
2019-04-20T06:09:54.537Z,56.00
2019-04-20T06:12:25.196Z,55.30
2019-04-20T06:15:12.769Z,55.00
2019-04-20T06:18:02.710Z,54.80
2019-04-20T06:23:33.562Z,54.40
2019-04-20T06:26:13.429Z,54.40
2019-04-20T06:28:30.753Z,54.20
2019-04-20T06:31:10.614Z,53.50
2019-04-20T06:34:27.697Z,53.40
2019-04-20T06:36:56.026Z,53.10
2019-04-20T06:39:26.281Z,52.50
2019-04-20T06:47:09.185Z,51.20
2019-04-20T06:49:33.306Z,51.10
2019-04-20T06:52:36.872Z,50.80
2019-04-20T06:55:05.151Z,51.20
2019-04-20T06:58:26.096Z,50.50
2019-04-20T07:00:15.821Z,49.90
2019-04-20T07:02:59.270Z,49.50
2019-04-20T07:05:22.357Z,49.70
2019-04-20T07:07:56.392Z,49.90
2019-04-20T07:10:34.399Z,49.60
2019-04-20T07:12:55.246Z,49.80
2019-04-20T07:15:36.434Z,49.50
2019-04-20T07:18:16.704Z,49.00
2019-04-20T07:21:15.318Z,48.30
2019-04-20T07:23:51.366Z,47.90
2019-04-20T07:26:22.327Z,47.80
2019-04-20T07:28:57.602Z,47.30
2019-04-20T07:31:18.177Z,47.30
2019-04-20T07:33:56.808Z,47.20
2019-04-20T07:36:34.871Z,46.90
2019-04-20T07:39:07.498Z,47.00
2019-04-20T07:41:43.629Z,46.70
2019-04-20T07:44:14.672Z,46.30
2019-04-20T07:46:47.118Z,46.40
2019-04-20T07:49:12.726Z,45.90
2019-04-20T07:51:31.723Z,45.70
2019-04-20T07:54:23.232Z,45.10
2019-04-20T07:56:47.701Z,45.10
2019-04-20T07:59:13.940Z,45.20
2019-04-20T08:02:32.036Z,44.60
2019-04-20T08:05:10.602Z,44.80
2019-04-20T08:07:39.133Z,44.20
2019-04-20T08:10:06.453Z,44.50
2019-04-20T08:15:36.404Z,43.70
2019-04-20T08:18:02.960Z,43.60
2019-04-20T08:20:34.112Z,43.30
2019-04-20T08:23:05.095Z,43.40
2019-04-20T08:25:32.800Z,43.80
2019-04-20T08:28:35.945Z,43.90
2019-04-20T08:31:38.371Z,43.60
2019-04-20T08:34:28.549Z,43.90
2019-04-20T08:36:56.665Z,43.50
2019-04-20T08:39:37.908Z,42.90
2019-04-20T08:42:03.062Z,42.90
2019-04-20T08:47:18.291Z,42.20
2019-04-20T08:49:45.493Z,42.00
2019-04-20T08:52:24.223Z,41.20
2019-04-20T08:54:38.088Z,41.10
2019-04-20T08:57:01.263Z,40.80
2019-04-20T08:59:32.015Z,41.00
2019-04-20T09:02:08.397Z,40.30
2019-04-20T09:04:45.034Z,40.00
2019-04-20T09:07:16.144Z,39.90
2019-04-20T09:10:00.544Z,39.60
2019-04-20T09:12:32.137Z,39.40
2019-04-20T09:14:48.734Z,39.20
2019-04-20T09:17:49.416Z,39.10
2019-04-20T09:20:30.451Z,39.20
2019-04-20T09:23:10.023Z,39.30
2019-04-20T09:25:55.942Z,39.00
2019-04-20T09:28:18.799Z,38.70
2019-04-20T09:30:55.871Z,38.20
2019-04-20T09:33:51.104Z,38.30
2019-04-20T09:36:23.677Z,38.40
2019-04-20T09:39:25.690Z,37.60
2019-04-20T09:42:03.668Z,38.10
2019-04-20T09:44:37.517Z,36.80
2019-04-20T09:47:41.942Z,36.40
2019-04-20T09:50:49.968Z,36.30
2019-04-20T09:53:14.207Z,36.70
2019-04-20T09:55:53.531Z,36.90
2019-04-20T09:58:19.212Z,36.20
2019-04-20T10:01:01.794Z,36.50
2019-04-20T10:03:20.780Z,36.30
2019-04-20T10:05:51.610Z,35.30
2019-04-20T10:08:23.908Z,34.90
2019-04-20T10:10:56.010Z,35.00
2019-04-20T10:13:27.805Z,34.80
2019-04-20T10:15:59.728Z,35.30
2019-04-20T10:18:34.182Z,35.10
2019-04-20T10:21:02.480Z,35.20
2019-04-20T10:23:34.449Z,34.90
2019-04-20T10:26:06.768Z,34.50
2019-04-20T10:28:37.787Z,34.00
2019-04-20T10:31:10.573Z,33.90
2019-04-20T10:33:41.784Z,33.00
2019-04-20T10:36:27.808Z,33.50
2019-04-20T10:38:58.408Z,34.20
2019-04-20T10:41:37.966Z,33.60
2019-04-20T10:44:02.791Z,33.40
2019-04-20T10:46:35.079Z,33.60
2019-04-20T10:49:07.685Z,35.00
2019-04-20T10:51:39.926Z,33.90
2019-04-20T10:54:12.094Z,32.80
2019-04-20T10:56:43.517Z,32.80
2019-04-20T10:59:14.193Z,32.00
2019-04-20T11:01:45.683Z,32.20
2019-04-20T11:04:16.805Z,31.90
2019-04-20T11:06:47.881Z,30.80
2019-04-20T11:09:18.971Z,31.20
2019-04-20T11:11:50.328Z,31.30
2019-04-20T11:14:27.993Z,31.20
2019-04-20T11:16:54.582Z,30.60
2019-04-20T11:19:25.350Z,29.90
2019-04-20T11:21:56.593Z,29.80
2019-04-20T11:24:28.084Z,29.60
2019-04-20T11:27:00.422Z,29.10
2019-04-20T11:29:31.898Z,28.90
2019-04-20T11:32:03.259Z,29.10
2019-04-20T11:34:39.870Z,28.50
2019-04-20T11:37:08.930Z,27.90
2019-04-20T11:39:40.841Z,27.40
2019-04-20T11:42:11.905Z,27.20
2019-04-20T11:44:42.515Z,27.40
2019-04-20T11:47:14.719Z,26.70
2019-04-20T11:49:45.816Z,26.20
2019-04-20T11:52:18.521Z,25.70
2019-04-20T11:54:50.425Z,25.20
2019-04-20T11:57:21.575Z,25.40
2019-04-20T11:59:53.076Z,24.40
2019-04-20T12:02:44.749Z,24.30
2019-04-20T12:05:26.177Z,25.30
2019-04-20T12:07:53.273Z,24.80
2019-04-20T12:10:26.051Z,24.70
2019-04-20T12:12:57.592Z,24.10
2019-04-20T12:15:30.477Z,24.50
2019-04-20T12:18:01.927Z,24.40
2019-04-20T12:20:34.554Z,24.00
2019-04-20T12:23:06.440Z,23.80
2019-04-20T12:25:39.350Z,23.70
2019-04-20T12:28:11.590Z,23.40
2019-04-20T12:30:43.874Z,23.40
2019-04-20T12:33:15.824Z,23.70
2019-04-20T12:35:47.997Z,23.80
2019-04-20T12:38:19.213Z,23.60
2019-04-20T12:40:50.329Z,24.00
2019-04-20T12:43:23.533Z,23.80
2019-04-20T12:45:55.866Z,23.30
2019-04-20T12:48:26.694Z,23.10
2019-04-20T12:50:57.584Z,23.00
2019-04-20T12:53:29.095Z,22.50
2019-04-20T12:56:00.770Z,22.70
2019-04-20T12:58:32.543Z,22.50
2019-04-20T13:01:04.509Z,22.10
2019-04-20T13:03:35.263Z,22.40
2019-04-20T13:06:05.962Z,22.80
2019-04-20T13:08:41.727Z,23.00
2019-04-20T13:11:44.259Z,22.70
2019-04-20T13:14:38.216Z,22.70
2019-04-20T13:17:08.705Z,22.30
2019-04-20T13:19:41.546Z,22.40
2019-04-20T13:22:12.929Z,22.00
2019-04-20T13:24:43.561Z,21.90
2019-04-20T13:27:14.395Z,22.00
2019-04-20T13:29:47.915Z,22.00
2019-04-20T13:32:18.272Z,21.70
2019-04-20T13:34:50.104Z,21.60
2019-04-20T13:37:22.175Z,21.20
2019-04-20T13:39:53.624Z,21.60
2019-04-20T13:42:27.880Z,21.70
2019-04-20T13:44:57.089Z,21.30
2019-04-20T13:47:28.326Z,20.80
2019-04-20T13:49:58.965Z,21.20
2019-04-20T13:52:30.961Z,20.90
2019-04-20T13:55:02.929Z,20.70
2019-04-20T13:57:42.113Z,20.60
2019-04-20T14:00:35.141Z,20.50
2019-04-20T14:03:08.988Z,20.50
2019-04-20T14:05:40.492Z,20.60
2019-04-20T14:08:11.641Z,20.90
2019-04-20T14:10:42.600Z,20.60
2019-04-20T14:13:18.345Z,20.60
2019-04-20T14:15:47.018Z,20.50
2019-04-20T14:18:19.394Z,20.10
2019-04-20T14:20:52.065Z,20.00
2019-04-20T14:23:23.435Z,20.20
2019-04-20T14:25:54.691Z,19.90
2019-04-20T14:28:26.821Z,20.00
2019-04-20T14:30:58.239Z,20.90
2019-04-20T14:33:30.669Z,20.10
2019-04-20T14:36:03.151Z,20.20
2019-04-20T14:38:36.062Z,20.30
2019-04-20T14:41:08.848Z,19.90
2019-04-20T14:43:39.985Z,20.10
2019-04-20T14:46:10.667Z,20.30
2019-04-20T14:48:41.085Z,19.70
2019-04-20T14:51:11.864Z,19.50
2019-04-20T14:53:43.723Z,19.60
2019-04-20T14:56:15.373Z,20.10
2019-04-20T14:59:05.160Z,19.70
2019-04-20T15:01:52.422Z,19.30
2019-04-20T15:04:25.055Z,19.20
2019-04-20T15:06:56.773Z,19.60
2019-04-20T15:09:28.685Z,20.20
2019-04-20T15:11:59.370Z,19.90
2019-04-20T15:14:30.774Z,19.00
2019-04-20T15:17:02.511Z,18.80
2019-04-20T15:19:41.629Z,19.20
2019-04-20T15:22:30.013Z,19.30
2019-04-20T15:25:00.407Z,19.30
2019-04-20T15:27:31.385Z,19.20
2019-04-20T15:30:02.670Z,18.80
2019-04-20T15:32:33.421Z,18.90
2019-04-20T15:35:05.124Z,19.10
2019-04-20T15:37:37.213Z,19.20
2019-04-20T15:40:08.986Z,19.80
2019-04-20T15:42:51.585Z,19.40
2019-04-20T15:45:13.544Z,19.60
2019-04-20T15:47:45.865Z,19.60
2019-04-20T15:50:17.947Z,19.80
2019-04-20T15:52:52.655Z,19.70
2019-04-20T15:55:27.488Z,19.80
2019-04-20T15:57:55.427Z,19.90
2019-04-20T16:00:26.798Z,20.20
2019-04-20T16:03:05.383Z,20.10
2019-04-20T16:05:49.351Z,20.40
2019-04-20T16:08:28.371Z,20.30
2019-04-20T16:10:59.539Z,20.40
2019-04-20T16:13:37.669Z,20.50
2019-04-20T16:16:03.678Z,20.60
2019-04-20T16:18:34.936Z,21.20
2019-04-20T16:21:11.703Z,21.40
2019-04-20T16:23:48.725Z,21.60
2019-04-20T16:26:27.530Z,21.80
2019-04-20T16:28:59.585Z,21.80
2019-04-20T16:31:30.899Z,21.90
2019-04-20T16:34:01.590Z,22.10
2019-04-20T16:36:32.701Z,21.80
2019-04-20T16:39:03.703Z,21.80
2019-04-20T16:41:36.043Z,21.80
2019-04-20T16:44:07.280Z,22.10
2019-04-20T16:46:38.370Z,22.50
2019-04-20T16:49:08.985Z,22.70
2019-04-20T16:51:40.883Z,22.90
2019-04-20T16:54:13.967Z,23.10
2019-04-20T16:56:44.693Z,23.00
2019-04-20T16:59:17.296Z,23.20
2019-04-20T17:01:49.021Z,23.00
2019-04-20T17:04:22.548Z,23.10
2019-04-20T17:07:29.103Z,23.20
2019-04-20T17:10:00.036Z,23.10
2019-04-20T17:12:31.875Z,23.30
2019-04-20T17:15:14.054Z,23.70
2019-04-20T17:17:46.766Z,23.80
2019-04-20T17:20:19.693Z,23.90
2019-04-20T17:22:50.760Z,23.90
2019-04-20T17:25:21.803Z,24.10
2019-04-20T17:28:12.960Z,24.20
2019-04-20T17:31:05.141Z,24.20
2019-04-20T17:33:55.335Z,23.90
2019-04-20T17:36:19.729Z,23.70
2019-04-20T17:38:53.717Z,24.50
2019-04-20T17:41:43.023Z,24.10
2019-04-20T17:44:11.884Z,24.00
2019-04-20T17:46:39.369Z,24.20
2019-04-20T17:49:14.817Z,24.70
2019-04-20T17:51:53.514Z,24.20
2019-04-20T17:54:22.002Z,24.30
2019-04-20T17:56:53.973Z,24.30
2019-04-20T17:59:26.059Z,24.50
2019-04-20T18:02:44.352Z,24.60
2019-04-20T18:07:58.268Z,24.70
2019-04-20T18:10:26.231Z,24.70
2019-04-20T18:12:47.710Z,24.80
2019-04-20T18:15:31.342Z,25.00
2019-04-20T18:18:24.527Z,25.10
2019-04-20T18:21:10.652Z,25.20
2019-04-20T18:23:44.806Z,25.40
2019-04-20T18:26:31.990Z,25.50
2019-04-20T18:29:10.651Z,25.70
2019-04-20T18:31:35.687Z,25.90
2019-04-20T18:34:14.513Z,25.90
2019-04-20T18:36:46.216Z,25.90
2019-04-20T18:39:17.167Z,26.20
2019-04-20T18:41:53.603Z,26.30
2019-04-20T18:44:30.393Z,26.60
2019-04-20T18:47:21.669Z,26.70
2019-04-20T18:49:38.666Z,26.50
2019-04-20T18:51:59.794Z,26.80
2019-04-20T18:54:36.570Z,27.10
2019-04-20T18:57:03.515Z,27.00
2019-04-20T18:59:40.672Z,27.20
2019-04-20T19:02:13.834Z,27.50
2019-04-20T19:04:41.837Z,27.50
2019-04-20T19:07:14.068Z,27.50
2019-04-20T19:09:45.844Z,27.50
2019-04-20T19:12:16.644Z,27.50
2019-04-20T19:15:05.607Z,27.40
2019-04-20T19:18:04.268Z,27.80
2019-04-20T19:20:28.494Z,27.90
2019-04-20T19:22:58.109Z,27.80
2019-04-20T19:25:33.106Z,28.20
2019-04-20T19:28:02.933Z,28.40
2019-04-20T19:30:41.282Z,28.50
2019-04-20T19:33:24.726Z,28.70
2019-04-20T19:35:51.388Z,28.70
2019-04-20T19:38:19.036Z,28.80
2019-04-20T19:40:54.580Z,28.60
2019-04-20T19:43:27.718Z,28.50
2019-04-20T19:46:29.670Z,28.30
2019-04-20T19:48:32.148Z,28.30
2019-04-20T19:51:19.474Z,28.20
2019-04-20T19:53:48.787Z,27.90
2019-04-20T19:56:09.936Z,27.90
2019-04-20T19:58:45.650Z,28.00
2019-04-20T20:01:06.612Z,27.80
2019-04-20T20:03:37.723Z,27.90
2019-04-20T20:06:11.080Z,28.30
2019-04-20T20:08:42.329Z,28.80
2019-04-20T20:11:21.458Z,28.60
2019-04-20T20:13:50.081Z,28.90
2019-04-20T20:16:28.020Z,29.00
2019-04-20T20:19:02.687Z,29.10
2019-04-20T20:21:36.018Z,29.00
2019-04-20T20:23:56.428Z,28.10
2019-04-20T20:26:33.608Z,28.50
2019-04-20T20:29:09.487Z,28.70
2019-04-20T20:31:48.508Z,28.90
2019-04-20T20:34:17.005Z,28.60
2019-04-20T20:36:47.194Z,28.60
2019-04-20T20:39:21.344Z,28.90
2019-04-20T20:41:57.827Z,28.60
2019-04-20T20:44:33.122Z,28.90
2019-04-20T20:47:00.771Z,29.40
2019-04-20T20:49:48.806Z,29.80
2019-04-20T20:52:18.477Z,29.60
2019-04-20T20:54:47.771Z,29.70
2019-04-20T20:57:09.470Z,29.50
2019-04-20T20:59:47.949Z,29.00
2019-04-20T21:02:15.856Z,28.80
2019-04-20T21:04:41.710Z,28.70
2019-04-20T21:07:12.961Z,28.50
2019-04-20T21:09:44.574Z,28.60
2019-04-20T21:12:18.065Z,28.60
2019-04-20T21:14:49.152Z,29.00
2019-04-20T21:17:24.290Z,29.20
2019-04-20T21:20:08.070Z,29.20
2019-04-20T21:22:44.802Z,29.20
2019-04-20T21:25:00.801Z,29.30
2019-04-20T21:27:32.892Z,29.30
2019-04-20T21:30:05.486Z,29.40
2019-04-20T21:32:42.201Z,28.80
2019-04-20T21:35:12.854Z,28.60
2019-04-20T21:37:52.498Z,28.90
2019-04-20T21:40:24.897Z,28.50
2019-04-20T21:42:55.224Z,28.60
2019-04-20T21:45:25.550Z,29.30
2019-04-20T21:47:52.662Z,29.40
2019-04-20T21:50:41.391Z,29.80
2019-04-20T21:53:04.770Z,29.00
2019-04-20T21:55:28.081Z,29.00
2019-04-20T21:58:01.876Z,29.00
2019-04-20T22:00:42.578Z,28.80
2019-04-20T22:03:14.684Z,28.90
2019-04-20T22:05:44.634Z,29.30
2019-04-20T22:08:18.188Z,29.40
2019-04-20T22:10:50.109Z,30.20
2019-04-20T22:13:27.916Z,31.40
2019-04-20T22:15:59.489Z,31.40
2019-04-20T22:18:27.239Z,32.80
2019-04-20T22:21:11.191Z,32.70
2019-04-20T22:23:47.603Z,33.20
2019-04-20T22:26:18.797Z,33.90
2019-04-20T22:28:38.251Z,34.20
2019-04-20T22:31:09.603Z,34.50
2019-04-20T22:33:43.058Z,34.90
2019-04-20T22:36:14.548Z,35.30
2019-04-20T22:39:05.260Z,35.60
2019-04-20T22:41:46.742Z,35.60
2019-04-20T22:44:19.343Z,35.70
2019-04-20T22:46:47.641Z,35.40
2019-04-20T22:49:36.335Z,34.60
2019-04-20T22:51:59.501Z,33.80
2019-04-20T22:54:39.502Z,33.20
2019-04-20T22:57:08.657Z,33.30
2019-04-20T22:59:40.876Z,33.30
2019-04-20T23:02:02.884Z,33.60
2019-04-20T23:04:34.862Z,33.40
2019-04-20T23:07:08.569Z,33.40
2019-04-20T23:09:47.586Z,32.90
2019-04-20T23:12:17.831Z,32.90
2019-04-20T23:14:44.743Z,32.40
2019-04-20T23:17:18.404Z,31.90
2019-04-20T23:19:52.847Z,32.50
2019-04-20T23:22:21.095Z,32.30
2019-04-20T23:24:53.305Z,32.00
2019-04-20T23:27:29.172Z,32.30
2019-04-20T23:29:58.345Z,31.90
2019-04-20T23:32:30.247Z,32.00
2019-04-20T23:35:04.920Z,32.40
2019-04-20T23:37:36.992Z,33.10
2019-04-20T23:40:10.056Z,34.00
2019-04-20T23:42:45.778Z,34.20
2019-04-20T23:45:47.611Z,35.10
2019-04-20T23:48:28.490Z,35.30
2019-04-20T23:51:09.924Z,35.00
2019-04-20T23:53:45.514Z,35.10
2019-04-20T23:56:01.858Z,36.10
2019-04-20T23:58:42.941Z,35.80
